Flight Track Log - Related Links

Times and Time Zones

All times are in EDT time to prevent confusion due to time zone crossing. See the EZY5453 flight status page for this flight to view local times or setup timezone preferences in your user account.

Time Position Orientation Groundspeed Altitude Reporting Facility
EDT Latitude Longitude Course Direction KTS MPH feet Rate Location/Type
Tue 03:01:00 AM 50.7279 1.3909 112° Southeast  Level Estimated
Tue 03:02:00 AM 50.6847 1.5474 113° Southeast  Level Estimated
Tue 03:03:00 AM 50.6413 1.7037 114° Southeast  Level Estimated
Tue 03:04:00 AM 50.5942 1.8724 114° Southeast  Level Estimated
Tue 03:05:00 AM 50.5468 2.0407 114° Southeast  Level Estimated
Tue 03:05:17 AM 51.1459 -0.2110 114° Southeast 65 75 600  Level FlightAware UK
Tue 03:05:39 AM 51.1419 -0.2367 258° West 168 193 1,600 2,233 Climbing FlightAware ADS-B (EGLF / FAB)
Tue 03:06:00 AM 51.1382 -0.2631 258° West 176 203 2,200 1,846 Climbing FlightAware ADS-B
Tue 03:06:05 AM 51.1371 -0.2710 260° West 179 206 2,400 2,400 Climbing FlightAware ADS-B (EGLL / LHR)
Tue 03:06:20 AM 51.1351 -0.2892 266° West 176 203 3,000 2,400 Climbing FlightAware ADS-B (EGLF / FAB)
Tue 03:06:30 AM 51.1361 -0.3007 289° West 173 199 3,400 2,250 Climbing FlightAware ADS-B
Tue 03:06:36 AM 51.1392 -0.3102 300° West 168 193 3,600 2,400 Climbing FlightAware ADS-B (EGHI / SOU)
Tue 03:06:40 AM 51.1393 -0.3107 310° West 172 198 3,800 2,100 Climbing FlightAware ADS-B (EGLL / LHR)
Tue 03:06:56 AM 51.1489 -0.3223 338° Northwest 174 200 4,300 1,655 Climbing FlightAware ADS-B (EGLL / LHR)
Tue 03:07:09 AM 51.1621 -0.3274 349° North 182 209 4,600 1,548 Climbing FlightAware ADS-B (EGLF / FAB)
Tue 03:07:27 AM 51.1774 -0.3309 North 187 215 5,100 1,448 Climbing FlightAware ADS-B (EGLL / LHR)
Tue 03:07:38 AM 51.1777 -0.3309 353° North 185 213 5,300 1,200 Climbing FlightAware ADS-B (EGLF / FAB)
Tue 03:07:47 AM 51.1937 -0.3217 37° Northeast 197 227 5,500 1,429 Climbing FlightAware ADS-B
Tue 03:07:59 AM 51.2009 -0.3074 62° Northeast 208 239 5,800 1,200 Climbing FlightAware ADS-B
Tue 03:08:07 AM 51.2036 -0.2957 75° East 219 252 5,900 545 Climbing FlightAware ADS-B
Tue 03:08:10 AM 51.2042 -0.2909 81° East 223 257 5,900  Level FlightAware ADS-B (EGHI / SOU)
Tue 03:08:19 AM 51.2055 -0.2763 82° East 239 275 5,900 231 Level FlightAware ADS-B (EGLF / FAB)
Tue 03:08:36 AM 51.2058 -0.2732 82° East 252 290 6,000 522 Climbing FlightAware ADS-B (EGLF / FAB)
Tue 03:08:42 AM 51.2100 -0.2316 77° East 279 321 6,100 2,000 Climbing FlightAware ADS-B
Tue 03:09:00 AM 51.2150 -0.2015 75° East 284 327 6,800 2,842 Climbing FlightAware ADS-B (EGLF / FAB)
Tue 03:09:20 AM 51.2227 -0.1567 75° East 285 328 7,900 3,130 Climbing FlightAware ADS-B (EGLF / FAB)
Tue 03:09:23 AM 51.2240 -0.1489 76° East 283 326 8,000 2,526 Climbing FlightAware ADS-B (KSCH)
Tue 03:09:39 AM 51.2292 -0.1180 75° East 293 337 8,700 2,727 Climbing FlightAware ADS-B (EGLF / FAB)
Tue 03:09:56 AM 51.2356 -0.0803 75° East 293 337 9,500 2,327 Climbing FlightAware ADS-B (EGLL / LHR)
Tue 03:10:28 AM 51.2474 -0.0118 75° East 303 349 10,600 1,814 Climbing FlightAware ADS-B (EGLC / LCY)
Tue 03:10:39 AM 51.2517 0.0129 76° East 322 371 10,800 1,250 Climbing FlightAware ADS-B (EGHI / SOU)
Tue 03:10:52 AM 51.2552 0.0330 75° East 336 387 11,100 1,650 Climbing FlightAware ADS-B (EGLC / LCY)
Tue 03:11:19 AM 51.2673 0.1112 84° East 350 403 11,900 2,108 Climbing FlightAware ADS-B (EGHI / SOU)
Tue 03:11:29 AM 51.2676 0.1344 91° East 352 405 12,400 2,700 Climbing FlightAware ADS-B (EGLF / FAB)
Tue 03:11:39 AM 51.2666 0.1633 92° East 353 406 12,800 2,400 Climbing FlightAware ADS-B (KSCH)
Tue 03:11:59 AM 51.2642 0.2156 94° East 356 410 13,600 2,353 Climbing FlightAware ADS-B (EGLC / LCY)
Tue 03:12:30 AM 51.2605 0.2944 94° East 361 415 14,800 2,262 Climbing FlightAware ADS-B (EGLF / FAB)
Tue 03:13:00 AM 51.2567 0.3744 94° East 368 423 15,900 2,229 Climbing FlightAware ADS-B
Tue 03:13:05 AM 51.2560 0.3889 94° East 369 425 16,100 1,862 Climbing FlightAware ADS-B (EGLC / LCY)
Tue 03:13:29 AM 51.2528 0.4559 93° East 377 434 16,800 2,200 Climbing FlightAware ADS-B (KSCH)
Tue 03:13:35 AM 51.2520 0.4718 93° East 378 435 17,200 2,432 Climbing FlightAware ADS-B (KSCH)
Tue 03:14:06 AM 51.2478 0.5568 95° East 375 432 18,300 2,032 Climbing FlightAware ADS-B (EGLC / LCY)
Tue 03:14:37 AM 51.2439 0.6288 95° East 381 438 19,300 1,770 Climbing FlightAware ADS-B
Tue 03:15:07 AM 51.2391 0.7212 95° East 387 445 20,100 1,444 Climbing FlightAware ADS-B (EGLC / LCY)
Tue 03:15:31 AM 51.2356 0.7967 93° East 397 457 20,600 1,385 Climbing FlightAware ADS-B (EGHI / SOU)
Tue 03:15:46 AM 51.2340 0.8412 93° East 401 461 21,000 1,800 Climbing FlightAware ADS-B (EGLC / LCY)
Tue 03:15:51 AM 51.2335 0.8550 92° East 400 460 21,200 1,800 Climbing FlightAware ADS-B (EGLL / LHR)
Tue 03:15:56 AM 51.2329 0.8713 92° East 400 460 21,300 1,833 Climbing FlightAware ADS-B (KSCH)
Tue 03:16:27 AM 51.2297 0.9628 93° East 404 465 22,300 1,742 Climbing FlightAware ADS-B (EGLC / LCY)
Tue 03:16:58 AM 51.2265 1.0554 93° East 406 467 23,100 1,429 Climbing FlightAware ADS-B (EGLC / LCY)
Tue 03:17:30 AM 51.2233 1.1481 93° East 413 475 23,800 1,385 Climbing FlightAware ADS-B (EGLF / FAB)
Tue 03:17:37 AM 51.2224 1.1732 92° East 414 476 24,000 1,412 Climbing FlightAware ADS-B (KSCH)
Tue 03:18:04 AM 51.2200 1.2460 93° East 421 484 24,600 1,448 Climbing FlightAware ADS-B
Tue 03:18:35 AM 51.2168 1.3370 93° East 422 486 25,400 1,333 Climbing FlightAware ADS-B (EGSR)
Tue 03:19:07 AM 51.2128 1.4507 93° East 428 493 26,000 1,132 Climbing FlightAware ADS-B (EGLC / LCY)
Tue 03:19:28 AM 51.2108 1.5079 93° East 432 497 26,400 1,929 Climbing FlightAware ADS-B (EGLF / FAB)
Tue 03:19:35 AM 51.2098 1.5329 93° East 433 498 26,900 1,500 Climbing FlightAware ADS-B (EGHH / BOH)
Tue 03:20:08 AM 51.2049 1.6434 97° East 433 498 27,400 900 Climbing FlightAware ADS-B (EGLC / LCY)
Tue 03:20:15 AM 51.2034 1.6595 99° East 434 499 27,500 1,091 Climbing FlightAware ADS-B (LRBS / BBU)
Tue 03:20:30 AM 51.1979 1.7109 99° East 435 501 27,800 1,200 Climbing FlightAware ADS-B (KSCH)
Tue 03:21:05 AM 51.1855 1.8254 99° East 436 502 28,500 1,167 Climbing FlightAware ADS-B (KSCH)
Tue 03:21:42 AM 51.1728 1.9439 99° East 440 506 29,200 1,067 Climbing FlightAware UK
Tue 03:21:50 AM 51.1712 1.9585 100° East 442 509 29,300 545 Climbing FlightAware ADS-B (EGLF / FAB)
Tue 03:21:53 AM 51.1691 1.9790 99° East 441 507 29,300 1,241 Level FlightAware ADS-B (KSCH)
Tue 03:22:19 AM 51.1592 2.0562 107° East 442 509 29,900 1,167 Climbing FlightAware ADS-B (EGLF / FAB)
Tue 03:22:29 AM 51.1514 2.0886 113° Southeast 440 506 30,000 667 Climbing FlightAware ADS-B (KSCH)
Tue 03:22:37 AM 51.1477 2.1011 119° Southeast 444 511 30,100 1,385 Climbing FlightAware ADS-B (EGLC / LCY)
Tue 03:22:42 AM 51.1471 2.1029 124° Southeast 444 511 30,300 818 Climbing FlightAware ADS-B (EGLF / FAB)
Tue 03:23:21 AM 51.1636 2.0287 129° Southeast 447 514 30,700 933 Climbing FlightAware ADS-B
Tue 03:24:12 AM 51.0229 2.3606 129° Southeast 444 511 31,700 963 Climbing FlightAware UK
Tue 03:24:42 AM 50.9840 2.4366 129° Southeast 450 518 32,000 632 Climbing FlightAware UK
Tue 03:24:50 AM 50.9754 2.4534 129° Southeast 452 520 32,100 1,091 Climbing FlightAware ADS-B (EGLC / LCY)
Tue 03:25:04 AM 50.9562 2.4914 128° Southeast 442 509 32,400 1,043 Climbing FlightAware ADS-B (KSCH)
Tue 03:25:36 AM 50.9153 2.5729 129° Southeast 453 521 32,900 818 Climbing FlightAware ADS-B (EGLF / FAB)
Tue 03:26:10 AM 50.8711 2.6604 129° Southeast 455 524 33,300 789 Climbing FlightAware ADS-B (EGLC / LCY)
Tue 03:26:14 AM 50.8646 2.6732 128° Southeast 450 518 33,400 923 Climbing FlightAware ADS-B (KSCH)
Tue 03:26:49 AM 50.8185 2.7642 129° Southeast 454 522 33,900 522 Climbing FlightAware ADS-B
Tue 03:27:23 AM 50.7744 2.8502 129° Southeast 467 537 34,000 130 Climbing FlightAware ADS-B (EGLF / FAB)
Tue 03:27:35 AM 50.7577 2.8829 126° Southeast 471 542 34,000  Level FlightAware ADS-B
Tue 03:27:42 AM 50.7485 2.9029 128° Southeast 470 541 34,000  Level FlightAware ADS-B (KSCH)
Tue 03:27:56 AM 50.7577 2.8829 113° Southeast 471 542 34,000  Level FlightAware ADS-B
Tue 03:28:29 AM 50.7066 3.0464 113° Southeast 466 536 34,000  Level FlightAware ADS-B (EGLF / FAB)
Tue 03:29:07 AM 50.6740 3.1667 113° Southeast 464 534 34,000  Level FlightAware UK
Tue 03:29:47 AM 50.6394 3.2882 114° Southeast 465 535 34,000  Level FlightAware ADS-B (EGLF / FAB)
Tue 03:30:17 AM 50.6135 3.3810 114° Southeast 467 537 34,000  Level FlightAware ADS-B (EGLF / FAB)
Tue 03:30:39 AM 50.5971 3.4399 114° Southeast 468 539 34,000  Level FlightAware ADS-B
Tue 03:31:10 AM 50.5670 3.5466 113° Southeast 466 536 34,000 140 Level FlightAware ADS-B (EHGR / GLZ)
Tue 03:32:05 AM 50.5259 3.6917 114° Southeast 468 539 34,200 474 Climbing FlightAware ADS-B
Tue 03:32:26 AM 50.5006 3.7815 114° Southeast 467 537 34,600 1,000 Climbing FlightAware ADS-B (EGLF / FAB)
Tue 03:32:29 AM 50.4970 3.7941 113° Southeast 463 533 34,600 727 Level FlightAware ADS-B (EHGR / GLZ)
Tue 03:32:59 AM 50.4710 3.8858 114° Southeast 467 537 35,000 381 Climbing FlightAware ADS-B
Tue 03:33:32 AM 50.4424 3.9864 114° Southeast 472 543 35,000  Level FlightAware ADS-B (LRBS / BBU)
Tue 03:33:45 AM 50.4325 4.0208 198° South 473 544 35,000  Level FlightAware ADS-B (EDKL)
Tue 03:33:53 AM 50.4249 4.0472 114° Southeast 467 537 35,000  Level FlightAware ADS-B (LRBS / BBU)
Tue 03:34:15 AM 50.4035 4.1207 114° Southeast 463 533 35,000  Level FlightAware ADS-B
Tue 03:34:48 AM 50.3752 4.2191 114° Southeast 464 534 35,000  Level FlightAware ADS-B (EGLF / FAB)
Tue 03:35:21 AM 50.3675 4.2458 114° Southeast 466 536 35,000  Level FlightAware ADS-B
Tue 03:35:53 AM 50.3190 4.4125 115° Southeast 467 537 35,000  Level FlightAware ADS-B (LRBS / BBU)
Tue 03:36:26 AM 50.2868 4.5225 115° Southeast 469 540 35,000  Level FlightAware ADS-B (LRBS / BBU)
Tue 03:36:58 AM 50.2695 4.5814 115° Southeast 469 540 35,000  Level FlightAware ADS-B (EDKL)
Tue 03:37:43 AM 50.2175 4.7578 115° Southeast 521 600 35,000  Level FlightAware UK
Tue 03:38:00 AM 50.2322 4.7080 115° Southeast 470 541 35,000  Level FlightAware ADS-B
Tue 03:39:13 AM 50.1343 5.0383 115° Southeast 486 559 35,000  Level FlightAware ADS-B (LRBS / BBU)
Tue 03:39:49 AM 50.0995 5.1532 114° Southeast 481 554 35,000  Level FlightAware ADS-B (EHGR / GLZ)
Tue 03:40:23 AM 50.0677 5.2585 114° Southeast 482 555 35,000  Level FlightAware ADS-B (EHGR / GLZ)
Tue 03:40:50 AM 50.0412 5.3466 115° Southeast 485 558 35,000  Level FlightAware ADS-B (LRBS / BBU)
Tue 03:41:22 AM 50.0134 5.4385 115° Southeast 485 558 35,000  Level FlightAware ADS-B (LRBS / BBU)
Tue 03:42:11 AM 49.9648 5.5977 115° Southeast 484 557 35,000  Level FlightAware ADS-B (LRBS / BBU)
Tue 03:42:50 AM 49.9288 5.7149 116° Southeast 484 557 35,000  Level FlightAware ADS-B (EDKL)
Tue 03:43:29 AM 49.9006 5.8060 116° Southeast 482 555 35,000  Level FlightAware ADS-B (EDKL)
Tue 03:44:04 AM 49.8580 5.9440 116° Southeast 482 555 35,000  Level FlightAware ADS-B (EDKL)
Tue 03:45:03 AM 49.7993 6.1320 116° Southeast 481 554 35,000  Level FlightAware ADS-B (EHGR / GLZ)
Tue 03:45:41 AM 49.7622 6.2502 116° Southeast 479 551 35,000  Level FlightAware ADS-B (EHGR / GLZ)
Tue 03:46:43 AM 49.7083 6.4204 116° Southeast 479 551 35,000  Level FlightAware ADS-B (EHGR / GLZ)
Tue 03:47:17 AM 49.6696 6.5427 116° Southeast 480 552 35,000  Level FlightAware ADS-B (EHGR / GLZ)
Tue 03:48:00 AM 49.6273 6.6751 116° Southeast 479 551 35,000  Level FlightAware ADS-B (EHGR / GLZ)
Tue 03:59:40 AM 48.8119 8.6893 137° Southeast 471 542 35,000  Level FlightAware ADS-B (KGHG)
Tue 04:00:21 AM 48.7486 8.7787 137° Southeast 471 542 35,000  Level FlightAware ADS-B (KGHG)
Tue 04:01:00 AM 48.6841 8.8690 137° Southeast 470 541 35,000  Level FlightAware ADS-B (KGHG)
Tue 04:01:38 AM 48.6242 8.9526 137° Southeast 471 542 35,000  Level FlightAware ADS-B (KGHG)
Tue 04:02:16 AM 48.5624 9.0384 137° Southeast 471 542 35,000  Level FlightAware ADS-B (KGHG)
Tue 04:02:50 AM 48.5093 9.1119 137° Southeast 473 544 35,000  Level FlightAware ADS-B (KGHG)
Tue 04:03:41 AM 48.4884 9.1408 138° Southeast 475 547 35,000  Level FlightAware ADS-B (EDDM / MUC)
Tue 04:05:46 AM 48.2532 9.4637 138° Southeast 481 554 35,000  Level FlightAware ADS-B (EDDM / MUC)
Tue 04:06:37 AM 48.1746 9.5661 140° Southeast 482 555 35,000  Level FlightAware ADS-B (EDDM / MUC)
Tue 04:07:17 AM 48.1058 9.6543 139° Southeast 482 555 35,000  Level FlightAware ADS-B (EDDM / MUC)
Tue 04:07:48 AM 48.0364 9.7438 139° Southeast 482 555 35,000  Level FlightAware ADS-B (EDDM / MUC)
Tue 04:08:20 AM 47.9817 9.8140 139° Southeast 482 555 35,000  Level FlightAware ADS-B (ETSE)
Tue 04:08:50 AM 47.9286 9.8818 139° Southeast 484 557 35,000  Level FlightAware ADS-B (ETSE)
Tue 04:09:02 AM 47.8902 9.9307 140° Southeast 484 557 35,000  Level FlightAware ADS-B (KGHG)
Tue 04:09:35 AM 47.8521 9.9791 140° Southeast 485 558 35,000  Level FlightAware ADS-B (ETSE)
Tue 04:09:50 AM 47.8079 10.0307 143° Southeast 482 555 35,000  Level FlightAware ADS-B (KGHG)
Tue 04:10:22 AM 47.7709 10.0715 143° Southeast 483 556 35,000  Level FlightAware ADS-B (EDDM / MUC)
Tue 04:10:52 AM 47.7146 10.1340 143° Southeast 482 555 35,000  Level FlightAware ADS-B (ETSE)
Tue 04:11:46 AM 47.6179 10.2408 143° Southeast 482 555 35,000  Level FlightAware ADS-B (ETSE)
Tue 04:12:29 AM 47.5446 10.3210 143° Southeast 482 555 35,000  Level FlightAware ADS-B (ETSE)
Tue 04:13:03 AM 47.4812 10.3905 143° Southeast 483 556 35,000  Level FlightAware ADS-B (EDDM / MUC)
Tue 04:13:34 AM 47.4261 10.4506 145° Southeast 482 555 35,000  Level FlightAware ADS-B (EDDM / MUC)
Tue 04:13:43 AM 47.4102 10.4669 147° Southeast 479 551 35,000 128 Level FlightAware ADS-B (EDDM / MUC)
Tue 04:14:21 AM 47.3510 10.5181 152° Southeast 475 547 35,100 143 Climbing FlightAware ADS-B (EDDM / MUC)
Tue 04:14:25 AM 47.3564 10.5140 155° Southeast 472 543 35,100 -162 Level FlightAware ADS-B (EDDM / MUC)
Tue 04:14:58 AM 47.2841 10.5662 158° South 470 541 35,000 -60 Descending FlightAware ADS-B (ETSE)
Tue 04:16:05 AM 47.1292 10.6599 157° South 466 536 35,000  Level FlightAware ADS-B (EDDM / MUC)
Tue 04:16:42 AM 47.0834 10.6887 157° South 464 534 35,000  Level FlightAware ADS-B (ETSE)
Tue 04:17:17 AM 46.9904 10.7472 157° South 465 535 35,000  Level FlightAware ADS-B (EDDM / MUC)
Tue 04:17:47 AM 46.9281 10.7863 157° South 465 535 35,000  Level FlightAware ADS-B (ETSE)
Tue 04:18:11 AM 46.8745 10.8218 153° Southeast 471 542 35,000  Level FlightAware ADS-B (KGHG)
Tue 04:18:48 AM 46.8122 10.8741 147° Southeast 477 549 35,000  Level FlightAware ADS-B (EDDM / MUC)
Tue 04:19:19 AM 46.7560 10.9336 141° Southeast 483 556 35,000  Level FlightAware ADS-B (EDDM / MUC)
Tue 04:19:27 AM 46.7590 10.9301 141° Southeast 482 555 35,000  Level FlightAware ADS-B (EDDM / MUC)
Tue 04:19:51 AM 46.6956 11.0139 133° Southeast 488 562 35,000 109 Level FlightAware ADS-B (KGHG)
Tue 04:20:22 AM 46.6591 11.0732 130° Southeast 487 560 35,100  Climbing FlightAware ADS-B (ETSE)
Tue 04:21:09 AM 46.5863 11.1954 131° Southeast 486 559 35,000 -74 Descending FlightAware ADS-B (EDDM / MUC)
Tue 04:21:43 AM 46.5377 11.2764 131° Southeast 486 559 35,000  Level FlightAware ADS-B (EDDM / MUC)
Tue 04:22:21 AM 46.4808 11.3713 131° Southeast 483 556 35,000  Level FlightAware ADS-B (ETSE)
Tue 04:23:03 AM 46.4353 11.4467 131° Southeast 485 558 35,000  Level FlightAware ADS-B (ETSE)
Tue 04:23:33 AM 46.3750 11.5462 131° Southeast 488 562 35,000  Level FlightAware ADS-B (EDDM / MUC)
Tue 04:24:04 AM 46.3329 11.6156 131° Southeast 488 562 35,000  Level FlightAware ADS-B (ETSE)
Tue 04:24:41 AM 46.2757 11.7098 131° Southeast 491 565 35,000  Level FlightAware ADS-B (EDDM / MUC)
Tue 04:25:24 AM 46.2122 11.8134 132° Southeast 492 566 35,000  Level FlightAware ADS-B (EDDM / MUC)
Tue 04:26:05 AM 46.1486 11.9170 132° Southeast 492 566 35,000  Level FlightAware ADS-B (EDDM / MUC)
Tue 04:26:52 AM 46.0763 12.0346 132° Southeast 492 566 35,000  Level FlightAware ADS-B (EDDM / MUC)
Tue 04:27:24 AM 46.0263 12.1150 132° Southeast 492 566 35,000  Level FlightAware ADS-B (EDDM / MUC)
Tue 04:28:06 AM 45.9670 12.2110 132° Southeast 492 566 35,000  Level FlightAware ADS-B (EDDM / MUC)
Tue 04:28:36 AM 45.9224 12.2831 132° Southeast 493 567 35,000  Level FlightAware ADS-B (ETSE)
Tue 04:29:12 AM 45.8641 12.3764 132° Southeast 494 568 35,000  Level FlightAware ADS-B (EDDM / MUC)
Tue 04:29:49 AM 45.8090 12.4640 132° Southeast 494 568 35,000  Level FlightAware ADS-B (LIPT / VIC)
Tue 04:30:33 AM 45.7408 12.5729 132° Southeast 494 568 35,000  Level FlightAware ADS-B (EDDM / MUC)
Tue 04:31:05 AM 45.6918 12.6503 132° Southeast 495 570 35,000  Level FlightAware ADS-B (ETSE)
Tue 04:31:36 AM 45.6617 12.6977 132° Southeast 495 570 35,000  Level FlightAware ADS-B (ETSE)
Tue 04:32:18 AM 45.6304 12.7473 132° Southeast 496 571 35,000  Level FlightAware ADS-B (LIPT / VIC)
Tue 04:34:08 AM 45.4104 13.0936 131° Southeast 502 578 35,000 383 Level FlightAware ADS-B (LIPT / VIC)
Tue 04:35:26 AM 45.2980 13.3062 127° Southeast 501 577 36,200 763 Climbing FlightAware ADS-B
Tue 04:36:06 AM 45.2435 13.4093 127° Southeast 503 579 36,500 600 Climbing FlightAware ADS-B
Tue 04:36:46 AM 45.1900 13.5106 127° Southeast 500 575 37,000 300 Climbing FlightAware ADS-B
Tue 04:37:46 AM 45.1602 13.5665 127° Southeast 506 582 37,000  Level FlightAware ADS-B
Tue 04:39:07 AM 44.9888 13.8867 127° Southeast 510 587 37,000  Level FlightAware ADS-B
Tue 04:40:26 AM 44.8757 14.0960 127° Southeast 511 588 37,000  Level FlightAware ADS-B
Tue 04:41:27 AM 44.7885 14.2565 127° Southeast 512 589 37,000  Level FlightAware ADS-B
Tue 04:42:47 AM 44.6726 14.4682 128° Southeast 516 594 37,000  Level FlightAware ADS-B
Tue 04:43:47 AM 44.5848 14.6277 128° Southeast 518 596 37,000 50 Level FlightAware ADS-B
Tue 04:44:47 AM 44.4970 14.7856 128° Southeast 515 593 37,100  Climbing FlightAware ADS-B
Tue 04:45:25 AM 44.4417 14.8850 128° Southeast 513 590 37,000 -75 Descending FlightAware ADS-B
Tue 04:46:07 AM 44.3806 14.9945 128° Southeast 513 590 37,000  Level FlightAware ADS-B
Tue 04:46:46 AM 44.3233 15.0967 128° Southeast 513 590 37,000  Level FlightAware ADS-B
Tue 04:47:27 AM 44.2636 15.2027 128° Southeast 514 592 37,000  Level FlightAware ADS-B
Tue 04:48:07 AM 44.2053 15.3060 128° Southeast 516 594 37,000  Level FlightAware ADS-B
Tue 04:49:07 AM 44.1171 15.4615 128° Southeast 518 596 37,000  Level FlightAware ADS-B
Tue 04:49:47 AM 44.0575 15.5663 128° Southeast 520 598 37,000  Level FlightAware ADS-B
Tue 04:50:27 AM 43.9979 15.6706 128° Southeast 522 601 37,000 61 Level FlightAware ADS-B
Tue 04:51:26 AM 43.9092 15.8252 129° Southeast 522 601 37,100 60 Climbing FlightAware ADS-B
Tue 04:52:07 AM 43.8477 15.9317 129° Southeast 519 597 37,100 -74 Level FlightAware ADS-B
Tue 04:52:47 AM 43.7876 16.0357 129° Southeast 520 598 37,000 -61 Descending FlightAware ADS-B
Tue 04:53:46 AM 43.6981 16.1892 129° Southeast 522 601 37,000  Level FlightAware ADS-B
Tue 04:53:59 AM 43.6811 16.2184 128° Southeast 522 601 37,000  Level FlightAware ADS-B
Tue 04:54:29 AM 43.6371 16.2937 128° Southeast 524 603 37,000  Level FlightAware ADS-B
Tue 04:54:46 AM 43.6115 16.3374 129° Southeast 526 605 37,000  Level FlightAware ADS-B
Tue 04:55:00 AM 43.5893 16.3752 128° Southeast 525 604 37,000  Level FlightAware ADS-B
Tue 04:55:27 AM 43.5450 16.4507 129° Southeast 527 606 37,000  Level FlightAware ADS-B
Tue 04:55:29 AM 43.5444 16.4517 128° Southeast 526 605 37,000  Level FlightAware ADS-B
Tue 04:55:59 AM 43.4975 16.5314 128° Southeast 529 609 37,000  Level FlightAware ADS-B
Tue 04:56:23 AM 43.4589 16.5967 129° Southeast 533 613 37,000  Level FlightAware ADS-B
Tue 04:56:29 AM 43.4507 16.6107 128° Southeast 532 612 37,000  Level FlightAware ADS-B
Tue 04:56:59 AM 43.4035 16.6904 129° Southeast 535 616 37,000  Level FlightAware ADS-B
Tue 04:57:06 AM 43.3925 16.7089 129° Southeast 536 617 37,000  Level FlightAware ADS-B
Tue 04:57:29 AM 43.3567 16.7689 129° Southeast 535 616 37,000  Level FlightAware ADS-B
Tue 04:57:45 AM 43.3299 16.8137 129° Southeast 537 618 37,000  Level FlightAware ADS-B
Tue 04:57:59 AM 43.3102 16.8468 129° Southeast 536 617 37,000 136 Level FlightAware ADS-B
Tue 04:58:29 AM 43.2636 16.9247 129° Southeast 537 618 37,100  Climbing FlightAware ADS-B
Tue 04:58:59 AM 43.2173 17.0019 129° Southeast 535 616 37,000 -100 Descending FlightAware ADS-B
Tue 04:59:29 AM 43.1695 17.0816 129° Southeast 535 616 37,000  Level FlightAware ADS-B
Tue 05:00:00 AM 43.1210 17.1626 129° Southeast 536 617 37,000  Level FlightAware ADS-B
Tue 05:00:29 AM 43.0742 17.2402 129° Southeast 536 617 37,000  Level FlightAware ADS-B
Tue 05:00:59 AM 43.0272 17.3176 129° Southeast 539 620 37,000  Level FlightAware ADS-B
Tue 05:01:00 AM 43.0415 17.2942 130° Southeast 538 619 37,000  Level FlightAware ADS-B
Tue 05:01:29 AM 42.9793 17.3962 129° Southeast 541 623 37,000  Level FlightAware ADS-B
Tue 05:01:59 AM 42.9311 17.4752 129° Southeast 543 625 37,000  Level FlightAware ADS-B
Tue 05:02:29 AM 42.8848 17.5511 129° Southeast 543 625 37,000  Level FlightAware ADS-B
Tue 05:03:00 AM 42.8345 17.6332 129° Southeast 543 625 37,000  Level FlightAware ADS-B
Tue 05:03:29 AM 42.7869 17.7108 129° Southeast 541 623 37,000  Level FlightAware ADS-B
Tue 05:03:58 AM 42.7465 17.7765 129° Southeast 540 621 37,000 100 Level FlightAware ADS-B
Tue 05:04:29 AM 42.6948 17.8605 129° Southeast 536 617 37,100  Climbing FlightAware ADS-B
Tue 05:04:59 AM 42.6535 17.9273 130° Southeast 533 613 37,000 -100 Descending FlightAware ADS-B
Tue 05:05:29 AM 42.5959 18.0205 129° Southeast 530 610 37,000  Level FlightAware ADS-B
Tue 05:06:00 AM 42.5501 18.0942 130° Southeast 530 610 37,000  Level FlightAware ADS-B
Tue 05:06:29 AM 42.5014 18.1721 130° Southeast 532 612 37,000  Level FlightAware ADS-B
Tue 05:06:59 AM 42.4623 18.2348 130° Southeast 535 616 37,000  Level FlightAware ADS-B
Tue 05:07:29 AM 42.4054 18.3255 130° Southeast 536 617 37,000  Level FlightAware ADS-B
Tue 05:07:59 AM 42.3577 18.4013 130° Southeast 537 618 37,000  Level FlightAware ADS-B
Tue 05:08:29 AM 42.3083 18.4799 130° Southeast 538 619 37,000  Level FlightAware ADS-B
Tue 05:08:59 AM 42.2608 18.5552 130° Southeast 539 620 37,000  Level FlightAware ADS-B
Tue 05:09:29 AM 42.2112 18.6338 130° Southeast 539 620 37,000  Level FlightAware ADS-B
Tue 05:09:59 AM 42.1628 18.7098 130° Southeast 538 619 37,000  Level FlightAware ADS-B
Tue 05:10:29 AM 42.1154 18.7842 130° Southeast 539 620 37,000  Level FlightAware ADS-B
Tue 05:10:55 AM 42.1105 18.7918 130° Southeast 539 620 37,000  Level FlightAware ADS-B
Tue 05:11:24 AM 42.0279 18.9215 130° Southeast 541 623 37,000  Level FlightAware ADS-B
Tue 05:11:39 AM 42.0015 18.9627 130° Southeast 541 623 37,000  Level FlightAware ADS-B
Tue 05:14:00 AM 41.8653 19.2768 120° Southeast  Level Estimated
Tue 05:15:00 AM 41.8072 19.4101 120° Southeast  Level Estimated
Tue 05:16:00 AM 41.7488 19.5431 120° Southeast  Level Estimated
Tue 05:17:00 AM 41.6903 19.6758 121° Southeast  Level Estimated
Tue 05:18:00 AM 41.6316 19.8084 121° Southeast  Level Estimated
Tue 05:19:00 AM 41.5728 19.9407 121° Southeast  Level Estimated
Tue 05:20:00 AM 41.5139 20.0727 121° Southeast  Level Estimated
Tue 05:21:00 AM 41.4548 20.2045 121° Southeast  Level Estimated
Tue 05:22:00 AM 41.3955 20.3361 121° Southeast  Level Estimated
Tue 05:23:00 AM 41.3361 20.4674 121° Southeast  Level Estimated
Tue 05:24:00 AM 41.2765 20.5985 121° Southeast  Level Estimated
Tue 05:25:00 AM 41.2168 20.7293 121° Southeast  Level Estimated
Tue 05:26:00 AM 41.1570 20.8599 121° Southeast  Level Estimated
Tue 05:27:00 AM 41.0969 20.9903 121° Southeast  Level Estimated
Tue 05:28:00 AM 41.0368 21.1204 121° Southeast  Level Estimated
Tue 05:29:00 AM 40.9765 21.2503 122° Southeast  Level Estimated
Tue 05:30:00 AM 40.9160 21.3799 122° Southeast  Level Estimated
Tue 05:31:00 AM 40.8555 21.5094 122° Southeast  Level Estimated
Tue 05:32:00 AM 40.7947 21.6385 122° Southeast  Level Estimated
Tue 05:33:00 AM 40.7338 21.7675 122° Southeast  Level Estimated
Tue 05:34:00 AM 40.6728 21.8962 122° Southeast  Level Estimated
Tue 05:35:00 AM 40.6117 22.0247 122° Southeast  Level Estimated
Tue 05:36:00 AM 40.5504 22.1529 122° Southeast  Level Estimated
Tue 05:37:00 AM 40.4889 22.2809 122° Southeast  Level Estimated
Tue 05:38:00 AM 40.4273 22.4087 122° Southeast  Level Estimated
Tue 05:39:00 AM 40.3656 22.5362 122° Southeast  Level Estimated
Tue 05:40:00 AM 40.3037 22.6635 122° Southeast  Level Estimated
Tue 05:41:00 AM 40.2417 22.7906 123° Southeast  Level Estimated
Tue 05:42:00 AM 40.1796 22.9174 123° Southeast  Level Estimated
Tue 05:43:00 AM 40.1173 23.0440 123° Southeast  Level Estimated
Tue 05:44:00 AM 40.0549 23.1704 123° Southeast  Level Estimated
Tue 05:45:00 AM 39.9923 23.2965 123° Southeast  Level Estimated
Tue 05:46:00 AM 39.9296 23.4224 123° Southeast  Level Estimated
Tue 05:47:00 AM 39.8668 23.5481 123° Southeast  Level Estimated
Tue 05:48:00 AM 39.8038 23.6735 123° Southeast  Level Estimated
Tue 05:49:00 AM 39.7407 23.7987 123° Southeast  Level Estimated
Tue 05:50:00 AM 39.6775 23.9237 123° Southeast  Level Estimated
Tue 05:51:00 AM 39.6141 24.0485 123° Southeast  Level Estimated
Tue 05:52:00 AM 39.5506 24.1730 123° Southeast  Level Estimated
Tue 05:53:00 AM 39.4870 24.2973 124° Southeast  Level Estimated
Tue 05:54:00 AM 39.4232 24.4214 124° Southeast  Level Estimated
Tue 05:55:00 AM 39.3593 24.5452 124° Southeast  Level Estimated
Tue 05:56:00 AM 39.2953 24.6688 124° Southeast  Level Estimated
Tue 05:57:00 AM 39.2312 24.7922 124° Southeast  Level Estimated
Tue 05:58:00 AM 39.1669 24.9154 124° Southeast  Level Estimated
Tue 05:59:00 AM 39.1024 25.0383 124° Southeast  Level Estimated
Tue 06:00:00 AM 39.0379 25.1611 124° Southeast  Level Estimated
Tue 06:01:00 AM 38.9732 25.2836 124° Southeast  Level Estimated
Tue 06:02:00 AM 38.9084 25.4058 124° Southeast  Level Estimated
Tue 06:03:00 AM 38.8435 25.5279 124° Southeast  Level Estimated
Tue 06:04:00 AM 38.7784 25.6497 124° Southeast  Level Estimated
Tue 06:05:00 AM 38.7132 25.7713 124° Southeast  Level Estimated
Tue 06:06:00 AM 38.6479 25.8927 125° Southeast  Level Estimated
Tue 06:07:00 AM 38.5825 26.0138 125° Southeast  Level Estimated
Tue 06:08:00 AM 38.5169 26.1348 125° Southeast  Level Estimated
Tue 06:09:00 AM 38.4513 26.2555 125° Southeast  Level Estimated
Tue 06:10:00 AM 38.3854 26.3760 125° Southeast  Level Estimated
Tue 06:11:00 AM 38.3195 26.4963 125° Southeast  Level Estimated
Tue 06:12:00 AM 38.2535 26.6163 125° Southeast  Level Estimated
Tue 06:13:00 AM 38.1873 26.7362 125° Southeast  Level Estimated
Tue 06:14:00 AM 38.1210 26.8558 125° Southeast  Level Estimated
Tue 06:15:00 AM 38.0546 26.9752 125° Southeast  Level Estimated
Tue 06:16:00 AM 37.9880 27.0944 125° Southeast  Level Estimated
Tue 06:17:00 AM 37.9214 27.2134 125° Southeast  Level Estimated
Tue 06:18:00 AM 37.8546 27.3321 125° Southeast  Level Estimated
Tue 06:19:00 AM 37.7877 27.4506 126° Southeast  Level Estimated
Tue 06:20:00 AM 37.7207 27.5690 126° Southeast  Level Estimated
Tue 06:21:00 AM 37.6536 27.6871 126° Southeast  Level Estimated
Tue 06:22:00 AM 37.5863 27.8050 126° Southeast  Level Estimated
Tue 06:23:00 AM 37.5189 27.9227 126° Southeast  Level Estimated
Tue 06:24:00 AM 37.4515 28.0401 126° Southeast  Level Estimated
Tue 06:25:00 AM 37.3839 28.1574 126° Southeast  Level Estimated
Tue 06:26:00 AM 37.3161 28.2745 126° Southeast  Level Estimated
Tue 06:27:00 AM 37.2483 28.3913 126° Southeast  Level Estimated
Tue 06:28:00 AM 37.1804 28.5079 126° Southeast  Level Estimated
Tue 06:29:00 AM 37.1123 28.6243 126° Southeast  Level Estimated
Tue 06:30:00 AM 37.0441 28.7406 126° Southeast  Level Estimated
Tue 06:31:00 AM 36.9758 28.8566 126° Southeast  Level Estimated
Tue 06:32:00 AM 36.9074 28.9724 126° Southeast  Level Estimated
Tue 06:33:00 AM 36.8389 29.0879 127° Southeast  Level Estimated
Tue 06:34:00 AM 36.7671 29.2087 127° Southeast  Level Estimated
Tue 06:35:00 AM 36.6952 29.3291 127° Southeast  Level Estimated
Tue 06:36:00 AM 36.6232 29.4494 127° Southeast  Level Estimated
Tue 06:37:00 AM 36.5510 29.5694 127° Southeast  Level Estimated
Tue 06:38:00 AM 36.4787 29.6892 127° Southeast  Level Estimated
Tue 06:39:00 AM 36.4063 29.8088 127° Southeast  Level Estimated
Tue 06:40:00 AM 36.3338 29.9282 127° Southeast  Level Estimated
Tue 06:41:00 AM 36.2612 30.0473 127° Southeast  Level Estimated
Tue 06:42:00 AM 36.1884 30.1662 127° Southeast  Level Estimated
Tue 06:43:00 AM 36.1155 30.2849 127° Southeast  Level Estimated
Tue 06:44:00 AM 36.0425 30.4034 127° Southeast  Level Estimated
Tue 06:45:00 AM 35.9694 30.5216 127° Southeast  Level Estimated
Tue 06:46:00 AM 35.8962 30.6397 127° Southeast  Level Estimated
Tue 06:47:00 AM 35.8229 30.7575 127° Southeast  Level Estimated
Tue 06:48:00 AM 35.7494 30.8751 128° Southeast  Level Estimated
Tue 06:49:00 AM 35.6759 30.9925 128° Southeast  Level Estimated
Tue 06:50:00 AM 35.6022 31.1096 128° Southeast  Level Estimated
Tue 06:51:00 AM 35.5284 31.2266 128° Southeast  Level Estimated
Tue 06:52:00 AM 35.4545 31.3433 128° Southeast  Level Estimated
Tue 06:53:00 AM 35.3805 31.4599 128° Southeast  Level Estimated
Tue 06:54:00 AM 35.3063 31.5762 128° Southeast  Level Estimated
Tue 06:55:00 AM 35.2321 31.6923 128° Southeast  Level Estimated
Tue 06:56:00 AM 35.1577 31.8081 128° Southeast  Level Estimated
Tue 06:57:00 AM 35.0833 31.9238 128° Southeast  Level Estimated
Tue 06:58:00 AM 35.0087 32.0393 128° Southeast  Level Estimated
Tue 06:59:00 AM 34.9340 32.1545 128° Southeast  Level Estimated
Tue 07:00:00 AM 34.8592 32.2696 128° Southeast  Level Estimated
Tue 07:01:00 AM 34.7843 32.3844 128° Southeast  Level Estimated
Tue 07:02:00 AM 34.7180 32.4857 129° Southeast  Level Estimated
Tue 07:03:00 AM 34.7180 32.4857 North  Level Estimated
Tue 07:04:00 AM 34.7180 32.4857 North  Level Estimated
Tue 07:05:00 AM 34.7180 32.4857 North  Level Estimated

Login

Don't have an account? Register now (free) for customized features, flight alerts, and more!